Time;durP1;ratioP1;P1;durP2;ratioP2;P2;SDS_P1;SDS_P2;PMS_P1;PMS_P2;Temp;Humidity;BMP_temperature;BMP_pressure;BME280_temperature;BME280_humidity;BME280_pressure;Samples;Min_cycle;Max_cycle;Signal;HPM_P1;HPM_P2
2022/02/24 00:00:22;;;;;;;6.57;2.60;;;;;;;6.15;72.99;101682.75;5069208;28;20220;-72
2022/02/24 00:02:48;;;;;;;5.03;2.17;;;;;;;6.16;72.31;101679.41;5047389;28;20186;-72
2022/02/24 00:05:14;;;;;;;7.47;2.37;;;;;;;6.14;72.52;101675.03;5049085;28;20558;-72
2022/02/24 00:07:40;;;;;;;6.33;2.97;;;;;;;6.13;72.77;101658.03;5054758;28;20691;-72
2022/02/24 00:10:08;;;;;;;6.03;2.33;;;;;;;6.13;71.94;101653.81;5069411;28;20172;-73
2022/02/24 00:12:38;;;;;;;4.87;2.27;;;;;;;6.11;72.12;101655.41;5069264;28;20184;-73
2022/02/24 00:15:05;;;;;;;9.60;2.53;;;;;;;6.10;72.13;101646.06;5069083;28;20192;-73
2022/02/24 00:17:31;;;;;;;10.27;2.40;;;;;;;6.11;71.49;101639.28;5069150;28;20185;-73
2022/02/24 00:19:56;;;;;;;6.07;2.50;;;;;;;6.09;71.78;101639.22;5069405;28;20551;-72
2022/02/24 00:22:21;;;;;;;5.77;2.17;;;;;;;6.10;71.67;101638.44;5051529;28;20201;-73
2022/02/24 00:24:48;;;;;;;7.37;2.30;;;;;;;6.12;71.55;101629.19;5069245;28;20614;-73
2022/02/24 00:27:14;;;;;;;9.07;2.43;;;;;;;6.12;70.98;101631.72;5066161;28;20276;-72
2022/02/24 00:29:39;;;;;;;6.70;2.43;;;;;;;6.10;71.55;101633.34;5049009;28;20281;-72
2022/02/24 00:32:05;;;;;;;10.50;2.67;;;;;;;6.08;71.60;101637.47;5048947;28;20240;-73
2022/02/24 00:34:30;;;;;;;4.93;2.17;;;;;;;6.07;71.73;101623.00;5048911;28;20649;-73
2022/02/24 00:36:56;;;;;;;6.97;2.20;;;;;;;6.07;71.68;101619.59;5055614;28;20196;-73
2022/02/24 00:39:23;;;;;;;7.57;2.43;;;;;;;6.05;71.69;101611.91;5062718;28;20778;-73
2022/02/24 00:41:49;;;;;;;7.10;2.23;;;;;;;6.08;71.20;101614.59;5049481;28;20255;-73
2022/02/24 00:44:15;;;;;;;6.43;2.10;;;;;;;6.09;70.70;101615.47;5048512;28;20210;-73
2022/02/24 00:46:41;;;;;;;7.43;2.67;;;;;;;6.07;70.82;101607.75;5048898;28;20285;-74
2022/02/24 00:49:08;;;;;;;4.20;2.17;;;;;;;6.07;71.21;101610.31;5048712;28;20201;-73
2022/02/24 00:51:34;;;;;;;9.50;2.60;;;;;;;6.02;71.55;101613.41;5048983;28;20770;-72
2022/02/24 00:53:59;;;;;;;7.27;2.37;;;;;;;6.03;71.84;101612.63;5054901;28;20190;-72
2022/02/24 00:56:25;;;;;;;6.07;2.40;;;;;;;5.98;71.34;101607.31;5052611;28;20178;-72
2022/02/24 00:58:51;;;;;;;7.47;2.50;;;;;;;5.97;71.71;101595.41;5058024;28;20662;-73
2022/02/24 01:01:16;;;;;;;7.37;2.43;;;;;;;5.98;71.72;101596.28;5066706;28;20225;-73
2022/02/24 01:03:42;;;;;;;8.63;2.73;;;;;;;5.99;71.96;101598.88;5052113;28;20269;-73
2022/02/24 01:06:07;;;;;;;7.50;2.60;;;;;;;5.98;71.79;101596.28;5052500;28;20194;-73
2022/02/24 01:08:32;;;;;;;9.87;2.93;;;;;;;5.99;71.54;101598.03;5055958;28;20340;-73
2022/02/24 01:10:58;;;;;;;7.17;2.40;;;;;;;5.94;71.82;101590.16;5052441;28;20251;-72
2022/02/24 01:13:23;;;;;;;8.03;2.57;;;;;;;5.94;72.29;101581.69;5052280;28;20196;-72
2022/02/24 01:15:49;;;;;;;4.23;2.27;;;;;;;5.95;72.03;101580.88;5052365;28;20169;-73
2022/02/24 01:18:14;;;;;;;5.87;2.70;;;;;;;5.96;72.26;101575.00;5052857;28;20178;-72
2022/02/24 01:20:40;;;;;;;4.83;2.13;;;;;;;5.94;72.02;101572.38;5052119;28;20777;-72
2022/02/24 01:23:05;;;;;;;7.73;2.30;;;;;;;5.94;72.31;101569.81;5056967;28;20186;-73
2022/02/24 01:25:32;;;;;;;9.10;2.40;;;;;;;5.95;72.12;101560.53;5056271;28;20213;-73
2022/02/24 01:27:58;;;;;;;7.00;2.50;;;;;;;5.94;71.87;101554.56;5062715;28;20189;-73
2022/02/24 01:30:23;;;;;;;5.73;2.13;;;;;;;5.97;72.36;101548.78;5061181;28;20679;-73
2022/02/24 01:32:49;;;;;;;6.63;2.63;;;;;;;5.93;72.15;101544.34;5071620;28;20185;-72
2022/02/24 01:35:14;;;;;;;3.50;1.70;;;;;;;5.97;71.95;101544.56;5071732;28;20219;-72
2022/02/24 01:37:40;;;;;;;5.43;1.93;;;;;;;5.97;71.66;101538.59;5063454;28;20197;-73
2022/02/24 01:40:07;;;;;;;4.57;2.00;;;;;;;5.96;72.26;101530.13;5048458;28;20176;-74
2022/02/24 01:42:32;;;;;;;6.40;2.30;;;;;;;6.00;71.94;101531.13;5061199;28;20251;-73
2022/02/24 01:44:58;;;;;;;5.37;2.37;;;;;;;5.99;72.22;101524.31;5063405;28;20686;-73
2022/02/24 01:47:24;;;;;;;8.13;2.10;;;;;;;6.01;72.42;101515.09;5070662;28;20188;-73
2022/02/24 01:49:50;;;;;;;5.17;2.20;;;;;;;6.03;72.24;101516.91;5033666;28;20209;-73
2022/02/24 01:52:15;;;;;;;4.10;2.10;;;;;;;6.04;72.25;101515.25;5053103;28;20206;-73
2022/02/24 01:54:41;;;;;;;6.47;1.97;;;;;;;6.04;71.34;101515.25;5035139;28;20181;-72
2022/02/24 01:57:07;;;;;;;8.53;2.50;;;;;;;6.08;70.92;101507.81;5051305;28;20194;-73
2022/02/24 01:59:32;;;;;;;8.53;2.10;;;;;;;6.08;71.63;101506.97;5042837;28;20204;-72
2022/02/24 02:01:58;;;;;;;9.87;2.30;;;;;;;6.06;71.96;101500.91;5051147;28;20214;-73
2022/02/24 02:04:24;;;;;;;5.60;2.10;;;;;;;6.02;72.16;101507.53;5050804;28;20210;-72
2022/02/24 02:06:50;;;;;;;6.37;1.90;;;;;;;6.00;71.86;101496.44;5051413;28;20560;-73
2022/02/24 02:09:17;;;;;;;5.53;2.20;;;;;;;5.93;72.41;101493.50;5051293;28;20457;-73
2022/02/24 02:11:43;;;;;;;8.67;2.20;;;;;;;5.94;72.13;101487.66;5071068;28;20215;-73
2022/02/24 02:14:10;;;;;;;9.50;2.30;;;;;;;5.96;72.00;101492.00;5070540;28;20208;-73
2022/02/24 02:16:41;;;;;;;6.17;1.93;;;;;;;6.01;72.17;101482.03;5069093;28;20833;-72
2022/02/24 02:19:06;;;;;;;6.93;2.00;;;;;;;6.05;71.63;101477.19;5070909;28;20189;-74
2022/02/24 02:21:31;;;;;;;7.90;2.20;;;;;;;6.08;72.10;101477.31;5071061;28;20235;-73
2022/02/24 02:23:57;;;;;;;6.83;1.93;;;;;;;6.07;72.07;101474.69;5037792;28;20186;-73
2022/02/24 02:26:23;;;;;;;6.27;2.10;;;;;;;6.05;72.33;101477.19;5051269;28;20173;-74
2022/02/24 02:28:48;;;;;;;4.07;2.00;;;;;;;6.09;72.23;101471.47;5033006;28;20243;-73
2022/02/24 02:31:19;;;;;;;6.63;2.20;;;;;;;6.13;72.17;101475.00;5040413;28;20236;-73
2022/02/24 02:33:44;;;;;;;5.87;1.83;;;;;;;6.13;71.98;101473.31;5050756;28;20604;-72
2022/02/24 02:36:10;;;;;;;5.23;2.07;;;;;;;6.12;72.03;101461.41;5050623;28;20186;-73
2022/02/24 02:38:35;;;;;;;6.37;1.70;;;;;;;6.11;71.66;101467.31;5050550;28;20276;-73
2022/02/24 02:41:00;;;;;;;7.00;2.30;;;;;;;6.14;71.72;101470.00;5050484;28;20249;-73
2022/02/24 02:43:26;;;;;;;6.33;2.00;;;;;;;6.16;71.73;101464.97;5050175;28;20190;-73
2022/02/24 02:45:51;;;;;;;6.60;2.20;;;;;;;6.15;71.69;101453.94;5050643;28;20221;-73
2022/02/24 02:48:16;;;;;;;5.90;2.10;;;;;;;6.15;71.97;101448.84;5065874;28;20216;-73
2022/02/24 02:50:42;;;;;;;6.90;2.00;;;;;;;6.15;71.88;101445.44;5049106;28;20585;-74
2022/02/24 02:53:07;;;;;;;8.20;2.47;;;;;;;6.17;71.96;101443.84;5054145;28;20212;-73
2022/02/24 02:55:33;;;;;;;6.40;1.90;;;;;;;6.20;72.20;101442.31;5061739;28;20197;-72
2022/02/24 02:57:58;;;;;;;6.57;2.23;;;;;;;6.18;72.46;101438.81;5043035;28;20193;-73
2022/02/24 03:00:24;;;;;;;7.43;2.40;;;;;;;6.21;72.33;101438.97;5032474;28;20209;-73
2022/02/24 03:02:49;;;;;;;6.50;2.17;;;;;;;6.21;72.70;101430.47;5050560;28;20200;-74
2022/02/24 03:05:14;;;;;;;5.27;2.07;;;;;;;6.25;71.79;101428.13;5049998;28;20607;-73
2022/02/24 03:07:40;;;;;;;5.30;2.00;;;;;;;6.25;72.07;101432.34;5050228;28;20196;-72
2022/02/24 03:10:07;;;;;;;6.87;2.03;;;;;;;6.28;72.70;101418.13;5050090;28;20188;-72
2022/02/24 03:12:35;;;;;;;5.27;1.97;;;;;;;6.28;72.53;101420.66;5054064;28;20205;-73
2022/02/24 03:15:04;;;;;;;5.87;2.10;;;;;;;6.28;72.32;101420.66;5049178;28;20320;-73
2022/02/24 03:17:30;;;;;;;5.23;1.87;;;;;;;6.28;72.21;101418.13;5049707;28;20287;-72
2022/02/24 03:19:55;;;;;;;6.03;2.00;;;;;;;6.26;73.09;101407.00;5049990;28;20232;-73
2022/02/24 03:22:20;;;;;;;5.60;1.90;;;;;;;6.34;72.75;101407.34;5049770;28;20283;-73
2022/02/24 03:24:46;;;;;;;7.80;2.10;;;;;;;6.34;72.78;101404.78;5053075;28;20268;-73
2022/02/24 03:27:11;;;;;;;8.30;2.60;;;;;;;6.36;72.10;101403.19;5053165;28;20655;-73
2022/02/24 03:29:36;;;;;;;7.97;2.20;;;;;;;6.33;72.23;101401.38;5060187;28;20783;-73
2022/02/24 03:32:02;;;;;;;5.90;2.37;;;;;;;6.38;72.85;101394.84;5059477;28;20208;-72
2022/02/24 03:34:28;;;;;;;5.70;2.43;;;;;;;6.35;73.01;101393.84;5069853;28;20185;-73
2022/02/24 03:36:53;;;;;;;7.50;2.10;;;;;;;6.35;72.26;101394.69;5067870;28;20204;-72
2022/02/24 03:39:18;;;;;;;7.40;2.37;;;;;;;6.37;72.50;101392.22;5056978;28;20231;-72
2022/02/24 03:41:44;;;;;;;8.70;2.27;;;;;;;6.40;72.43;101390.69;5058577;28;20688;-73
2022/02/24 03:44:09;;;;;;;7.90;2.70;;;;;;;6.41;71.81;101389.88;5056391;28;20684;-73
2022/02/24 03:46:35;;;;;;;6.17;2.17;;;;;;;6.46;72.58;101390.09;5045643;28;20181;-73
2022/02/24 03:49:00;;;;;;;6.13;2.10;;;;;;;6.46;72.80;101379.91;5049412;28;20727;-74
2022/02/24 03:51:25;;;;;;;7.33;2.10;;;;;;;6.45;72.51;101376.47;5049443;28;20838;-73
2022/02/24 03:53:50;;;;;;;6.30;1.80;;;;;;;6.45;73.39;101381.56;5052645;28;20255;-73
2022/02/24 03:56:16;;;;;;;6.13;2.30;;;;;;;6.45;72.94;101378.19;5049241;28;20535;-72
2022/02/24 03:58:41;;;;;;;7.73;2.50;;;;;;;6.46;73.00;101375.72;5049252;28;20723;-72
2022/02/24 04:01:07;;;;;;;8.13;2.43;;;;;;;6.44;72.67;101372.22;5048882;28;20295;-73
2022/02/24 04:03:32;;;;;;;8.80;2.57;;;;;;;6.45;72.67;101373.09;5062405;28;20185;-73
2022/02/24 04:05:57;;;;;;;7.10;2.20;;;;;;;6.43;73.14;101367.94;5061000;28;20213;-73
2022/02/24 04:08:23;;;;;;;8.57;2.67;;;;;;;6.43;73.48;101367.06;5037371;28;20221;-72
2022/02/24 04:10:49;;;;;;;5.97;2.50;;;;;;;6.42;72.92;101358.56;5049130;28;20201;-72
2022/02/24 04:13:14;;;;;;;8.07;2.50;;;;;;;6.43;73.53;101351.78;5049730;28;20186;-72
2022/02/24 04:15:40;;;;;;;6.93;2.33;;;;;;;6.43;73.86;101354.34;5059180;28;20190;-73
2022/02/24 04:18:06;;;;;;;6.37;2.17;;;;;;;6.41;74.21;101351.72;5048965;28;20196;-73
2022/02/24 04:20:31;;;;;;;9.63;2.30;;;;;;;6.44;73.12;101351.88;5049004;28;20205;-73
2022/02/24 04:22:57;;;;;;;5.27;2.67;;;;;;;6.42;73.92;101350.94;5049126;28;20182;-72
2022/02/24 04:25:23;;;;;;;4.87;2.13;;;;;;;6.47;73.32;101354.56;5048668;28;20243;-72
2022/02/24 04:27:52;;;;;;;7.40;2.33;;;;;;;6.49;73.11;101347.84;5061975;28;20269;-73
2022/02/24 04:30:19;;;;;;;4.67;2.00;;;;;;;6.48;73.52;101347.78;5060382;28;20274;-74
2022/02/24 04:32:45;;;;;;;6.80;2.40;;;;;;;6.46;73.82;101340.09;5036050;28;20205;-72
2022/02/24 04:35:12;;;;;;;6.90;2.27;;;;;;;6.50;73.62;101343.63;5068850;28;20194;-72
2022/02/24 04:37:37;;;;;;;5.57;2.47;;;;;;;6.49;74.12;101331.72;5052988;28;20186;-72
2022/02/24 04:40:04;;;;;;;6.20;2.27;;;;;;;6.49;74.07;101334.28;5053078;28;20192;-72
2022/02/24 04:42:30;;;;;;;5.93;2.33;;;;;;;6.49;74.48;101326.66;5056990;28;20267;-73
2022/02/24 04:44:55;;;;;;;5.23;2.50;;;;;;;6.48;73.98;101323.22;5069294;28;20208;-73
2022/02/24 04:47:20;;;;;;;8.20;2.40;;;;;;;6.48;74.30;101322.34;5036670;28;20198;-73
2022/02/24 04:49:46;;;;;;;5.57;2.30;;;;;;;6.48;74.06;101314.72;5052812;28;20193;-72
2022/02/24 04:52:11;;;;;;;5.40;2.33;;;;;;;6.47;74.67;101308.78;5034998;28;20255;-73
2022/02/24 04:54:36;;;;;;;9.03;2.30;;;;;;;6.47;74.38;101307.88;5052431;28;20740;-73
2022/02/24 04:57:02;;;;;;;9.93;2.63;;;;;;;6.48;74.43;101307.97;5052849;28;20186;-73
2022/02/24 04:59:27;;;;;;;7.53;2.97;;;;;;;6.48;74.78;101304.53;5052172;28;20276;-73
2022/02/24 05:01:52;;;;;;;5.30;2.33;;;;;;;6.47;75.37;101305.34;5071426;28;20231;-74
2022/02/24 05:04:18;;;;;;;10.23;3.13;;;;;;;6.46;74.70;101307.03;5072197;28;20205;-73
2022/02/24 05:06:43;;;;;;;9.60;2.60;;;;;;;6.47;74.75;101298.59;5059293;28;20190;-74
2022/02/24 05:09:08;;;;;;;9.10;2.70;;;;;;;6.48;74.89;101290.16;5052225;28;20615;-73
2022/02/24 05:11:34;;;;;;;9.87;2.93;;;;;;;6.47;75.69;101300.25;5052242;28;20206;-73
2022/02/24 05:14:00;;;;;;;5.73;2.20;;;;;;;6.45;75.56;101289.16;5059109;28;20598;-73
2022/02/24 05:16:25;;;;;;;7.30;2.60;;;;;;;6.50;75.37;101292.75;5065123;28;20189;-73
2022/02/24 05:18:50;;;;;;;5.10;2.23;;;;;;;6.50;75.04;101292.75;5052181;28;20340;-73
2022/02/24 05:21:17;;;;;;;5.97;2.00;;;;;;;6.51;74.81;101290.28;5065451;28;20201;-72
2022/02/24 05:23:43;;;;;;;9.43;2.33;;;;;;;6.52;74.96;101281.84;5071799;28;20222;-74
2022/02/24 05:26:09;;;;;;;8.73;2.87;;;;;;;6.56;74.43;101287.94;5072043;28;20217;-72
2022/02/24 05:28:34;;;;;;;9.10;2.73;;;;;;;6.62;74.48;101283.09;5071998;28;20224;-72
2022/02/24 05:31:00;;;;;;;7.57;2.97;;;;;;;6.64;73.90;101267.09;5071594;28;20386;-73
2022/02/24 05:33:30;;;;;;;6.60;2.90;;;;;;;6.71;73.40;101276.72;5040682;28;20185;-72
2022/02/24 05:35:56;;;;;;;10.10;3.30;;;;;;;6.77;73.28;101276.97;5051733;28;20603;-73
2022/02/24 05:38:22;;;;;;;11.20;3.50;;;;;;;6.82;72.48;101261.91;5016687;28;20212;-73
2022/02/24 05:40:48;;;;;;;9.50;3.17;;;;;;;6.86;72.33;101267.16;5055906;28;20691;-74
2022/02/24 05:43:13;;;;;;;10.73;3.60;;;;;;;6.92;72.44;101262.34;5063413;28;20185;-73
2022/02/24 05:45:38;;;;;;;9.37;3.10;;;;;;;6.96;72.81;101253.16;5053559;28;20970;-72
2022/02/24 05:48:04;;;;;;;10.10;3.30;;;;;;;6.98;72.50;101249.84;5071631;28;20185;-73
2022/02/24 05:50:29;;;;;;;6.93;3.00;;;;;;;6.98;72.11;101251.50;5071529;28;20270;-72
2022/02/24 05:52:54;;;;;;;9.63;3.60;;;;;;;6.99;71.64;101245.59;5071622;28;20196;-73
2022/02/24 05:55:20;;;;;;;8.57;3.60;;;;;;;7.01;71.21;101249.97;5071491;28;20264;-72
2022/02/24 05:57:45;;;;;;;8.80;3.67;;;;;;;7.10;71.04;101242.69;5071622;28;20204;-72
2022/02/24 06:00:12;;;;;;;8.63;4.00;;;;;;;7.11;71.13;101239.34;5053714;28;20238;-73
2022/02/24 06:02:38;;;;;;;9.37;4.23;;;;;;;7.12;71.14;101230.91;5071646;28;20181;-72
2022/02/24 06:05:05;;;;;;;11.40;3.90;;;;;;;7.10;71.44;101229.94;5071265;28;20319;-72
2022/02/24 06:07:30;;;;;;;6.83;3.53;;;;;;;7.22;69.91;101240.63;5071358;28;20276;-72
2022/02/24 06:09:55;;;;;;;10.10;4.17;;;;;;;7.14;71.15;101218.22;5049939;28;20264;-73
2022/02/24 06:12:21;;;;;;;10.00;4.07;;;;;;;7.17;70.33;101226.84;5051115;28;20654;-73
2022/02/24 06:14:46;;;;;;;7.43;3.60;;;;;;;7.20;69.84;101232.06;5060973;28;20731;-72
2022/02/24 06:17:11;;;;;;;9.97;4.20;;;;;;;7.20;70.41;101221.88;5062746;28;20861;-73
2022/02/24 06:19:37;;;;;;;10.17;4.20;;;;;;;7.20;69.16;101231.19;5071012;28;20580;-72
2022/02/24 06:22:02;;;;;;;6.07;3.73;;;;;;;7.18;69.42;101222.63;5052922;28;20696;-73
2022/02/24 06:24:28;;;;;;;9.97;3.87;;;;;;;7.17;69.83;101211.56;5070664;28;20209;-74
2022/02/24 06:26:53;;;;;;;12.00;4.57;;;;;;;7.19;69.33;101211.63;5071004;28;20192;-74
2022/02/24 06:29:19;;;;;;;12.20;4.50;;;;;;;7.24;69.65;101215.22;5069847;28;20551;-73
2022/02/24 06:31:44;;;;;;;11.10;4.10;;;;;;;7.23;69.17;101211.78;5070823;28;20212;-73
2022/02/24 06:34:09;;;;;;;11.80;4.60;;;;;;;7.21;69.50;101212.56;5070721;28;20209;-72
2022/02/24 06:36:35;;;;;;;13.13;4.80;;;;;;;7.18;69.91;101217.53;5070532;28;20207;-74
2022/02/24 06:39:00;;;;;;;10.10;3.93;;;;;;;7.18;69.38;101208.22;5070625;28;20715;-73
2022/02/24 06:41:26;;;;;;;9.20;3.70;;;;;;;7.16;69.89;101212.38;5058626;28;20704;-73
2022/02/24 06:43:51;;;;;;;11.57;4.43;;;;;;;7.16;70.42;101207.28;5063285;28;20596;-73
2022/02/24 06:46:18;;;;;;;10.37;4.90;;;;;;;7.16;70.08;101209.84;5070605;28;20699;-73
2022/02/24 06:48:44;;;;;;;8.17;3.67;;;;;;;7.17;70.54;101205.59;5070473;28;20165;-73
2022/02/24 06:51:09;;;;;;;11.80;4.30;;;;;;;7.17;70.68;101213.25;5069302;28;20632;-73
2022/02/24 06:53:35;;;;;;;12.63;4.90;;;;;;;7.16;70.13;101207.28;5070340;28;20208;-73
2022/02/24 06:56:00;;;;;;;8.77;3.77;;;;;;;7.16;70.19;101204.75;5070183;28;20251;-72
2022/02/24 06:58:25;;;;;;;8.10;3.77;;;;;;;7.15;70.68;101200.47;5070273;28;20196;-72
2022/02/24 07:00:51;;;;;;;8.90;3.67;;;;;;;7.17;71.60;101197.97;5070051;28;20213;-72
2022/02/24 07:03:17;;;;;;;8.60;3.33;;;;;;;7.18;71.78;101199.72;5070288;28;20204;-73
2022/02/24 07:05:42;;;;;;;9.73;3.23;;;;;;;7.18;72.01;101182.75;5069828;28;20197;-72
2022/02/24 07:08:07;;;;;;;7.23;3.37;;;;;;;7.18;71.87;101184.44;5070084;28;20957;-72
2022/02/24 07:10:33;;;;;;;8.30;3.77;;;;;;;7.16;72.71;101175.84;5051746;28;20256;-73
2022/02/24 07:12:58;;;;;;;7.03;2.83;;;;;;;7.18;73.33;101174.25;5032407;28;20200;-73
2022/02/24 07:15:23;;;;;;;8.00;3.30;;;;;;;7.19;73.04;101170.91;5032180;28;20316;-73
2022/02/24 07:17:49;;;;;;;10.40;3.33;;;;;;;7.20;72.47;101162.44;5063823;28;20182;-72
2022/02/24 07:20:16;;;;;;;10.07;3.80;;;;;;;7.23;72.81;101176.16;5066053;28;20872;-74
2022/02/24 07:22:42;;;;;;;8.57;3.37;;;;;;;7.24;72.25;101165.16;5069844;28;20257;-74
2022/02/24 07:25:08;;;;;;;8.37;3.50;;;;;;;7.25;72.67;101166.91;5069640;28;20220;-73
2022/02/24 07:27:34;;;;;;;9.93;3.20;;;;;;;7.25;72.86;101158.38;5069815;28;20236;-72
2022/02/24 07:30:02;;;;;;;8.00;3.20;;;;;;;7.24;72.91;101160.06;5069761;28;20227;-73
2022/02/24 07:32:27;;;;;;;9.33;3.00;;;;;;;7.27;73.30;101159.31;5069655;28;20205;-72
2022/02/24 07:34:52;;;;;;;9.10;3.13;;;;;;;7.31;73.81;101159.47;5069384;28;20238;-73
2022/02/24 07:37:18;;;;;;;11.93;3.80;;;;;;;7.34;73.88;101149.41;5069672;28;20327;-73
2022/02/24 07:39:43;;;;;;;10.70;3.43;;;;;;;7.36;73.35;101142.69;5069702;28;20217;-72
2022/02/24 07:42:08;;;;;;;8.13;3.60;;;;;;;7.36;72.85;101145.25;5059985;28;20295;-72
2022/02/24 07:44:34;;;;;;;7.40;3.73;;;;;;;7.36;72.82;101139.25;5031315;28;20209;-73
2022/02/24 07:46:59;;;;;;;9.30;4.30;;;;;;;7.37;72.10;101146.13;5049594;28;20189;-72
2022/02/24 07:49:26;;;;;;;9.27;4.67;;;;;;;7.36;72.70;101141.81;5031526;28;20196;-72
2022/02/24 07:51:52;;;;;;;14.10;4.83;;;;;;;7.38;72.88;101140.22;5049330;28;20279;-72
2022/02/24 07:54:18;;;;;;;9.63;4.60;;;;;;;7.37;72.91;101139.31;5031395;28;20209;-72
2022/02/24 07:56:44;;;;;;;10.23;4.07;;;;;;;7.37;72.67;101136.78;5049387;28;20182;-72
2022/02/24 07:59:09;;;;;;;15.03;5.27;;;;;;;7.38;73.31;101132.56;5049357;28;20243;-72
2022/02/24 08:01:34;;;;;;;9.80;4.40;;;;;;;7.40;72.65;101131.81;5048891;28;20355;-72
2022/02/24 08:04:00;;;;;;;9.33;4.23;;;;;;;7.42;71.94;101132.72;5049059;28;20272;-72
2022/02/24 08:06:25;;;;;;;11.07;4.20;;;;;;;7.50;71.84;101126.22;5049159;28;20559;-72
2022/02/24 08:08:52;;;;;;;8.10;3.90;;;;;;;7.50;72.00;101117.69;5035930;28;20196;-73
2022/02/24 08:11:17;;;;;;;13.60;4.50;;;;;;;7.51;72.01;101117.75;5069360;28;20220;-73
2022/02/24 08:13:43;;;;;;;7.10;4.23;;;;;;;7.60;72.93;101109.59;5069402;28;20184;-72
2022/02/24 08:16:08;;;;;;;10.33;4.13;;;;;;;7.67;72.83;101104.75;5069430;28;20176;-73
2022/02/24 08:18:34;;;;;;;11.87;4.33;;;;;;;7.75;71.47;101095.72;5069208;28;21003;-73
2022/02/24 08:20:59;;;;;;;9.33;3.60;;;;;;;7.80;71.21;101100.94;5060791;28;20212;-73
2022/02/24 08:23:24;;;;;;;12.90;3.97;;;;;;;7.81;72.28;101102.69;5069645;28;20189;-73
2022/02/24 08:25:49;;;;;;;9.03;3.67;;;;;;;7.81;72.09;101103.56;5069260;28;20213;-73
2022/02/24 08:28:15;;;;;;;9.80;4.03;;;;;;;7.85;71.47;101114.72;5069388;28;20175;-73
2022/02/24 08:30:40;;;;;;;10.80;4.13;;;;;;;7.82;71.44;101095.09;5068366;28;20204;-72
2022/02/24 08:33:05;;;;;;;11.07;4.13;;;;;;;7.85;71.87;101091.78;5069407;28;20192;-72
2022/02/24 08:35:32;;;;;;;8.80;3.70;;;;;;;7.92;71.36;101086.94;5050948;28;20189;-72
2022/02/24 08:37:57;;;;;;;11.40;4.07;;;;;;;7.96;71.56;101075.16;5051374;28;20656;-72
2022/02/24 08:40:23;;;;;;;11.67;3.70;;;;;;;7.97;72.27;101070.09;5065853;28;20217;-72
2022/02/24 08:42:50;;;;;;;9.97;3.50;;;;;;;7.95;72.42;101079.41;5040460;28;20194;-72
2022/02/24 08:45:16;;;;;;;10.87;3.67;;;;;;;8.00;70.83;101075.31;5048771;28;20218;-72
2022/02/24 08:47:42;;;;;;;7.57;3.67;;;;;;;8.11;71.51;101068.88;5048979;28;20550;-72
2022/02/24 08:50:10;;;;;;;8.37;3.40;;;;;;;8.26;71.05;101073.66;5048747;28;20231;-72
2022/02/24 08:52:35;;;;;;;10.47;4.13;;;;;;;8.27;71.35;101062.63;5048889;28;20213;-72
2022/02/24 08:55:01;;;;;;;10.70;4.17;;;;;;;8.22;71.19;101077.78;5048585;28;20188;-72
2022/02/24 08:57:26;;;;;;;11.40;3.93;;;;;;;8.24;71.74;101062.53;5048801;28;20220;-72
2022/02/24 08:59:52;;;;;;;11.57;4.23;;;;;;;8.25;71.19;101049.81;5048753;28;20229;-72
2022/02/24 09:02:17;;;;;;;7.80;3.73;;;;;;;8.24;71.94;101048.09;5048867;28;20202;-72
2022/02/24 09:04:43;;;;;;;9.73;3.60;;;;;;;8.36;72.16;101047.59;5048349;28;20237;-72
2022/02/24 09:07:08;;;;;;;12.97;3.40;;;;;;;8.54;71.46;101031.19;5048879;28;20691;-72
2022/02/24 09:09:33;;;;;;;9.63;3.63;;;;;;;8.80;70.16;101017.50;5048567;28;20197;-72
2022/02/24 09:11:59;;;;;;;10.80;3.80;;;;;;;8.93;70.31;101017.03;5039458;28;20297;-73
2022/02/24 09:14:25;;;;;;;9.10;3.77;;;;;;;8.78;69.92;101021.69;5066429;28;20197;-73
2022/02/24 09:16:50;;;;;;;8.27;3.20;;;;;;;8.75;70.22;101010.53;5057493;28;20190;-72
2022/02/24 09:19:15;;;;;;;6.87;3.30;;;;;;;8.90;69.43;100999.06;5035633;28;20200;-72
2022/02/24 09:21:41;;;;;;;7.53;3.03;;;;;;;8.98;69.30;100996.75;5066492;28;20245;-72
2022/02/24 09:24:07;;;;;;;9.87;3.50;;;;;;;9.15;67.50;100988.72;5033679;28;20185;-72
2022/02/24 09:26:33;;;;;;;6.70;3.00;;;;;;;9.28;66.80;100988.22;5034006;28;20268;-72
2022/02/24 09:29:02;;;;;;;10.13;3.67;;;;;;;9.40;66.16;100987.69;5061920;28;20203;-72
2022/02/24 09:31:28;;;;;;;11.17;3.30;;;;;;;9.56;64.95;100980.44;5051761;28;20680;-73
2022/02/24 09:33:53;;;;;;;10.27;3.30;;;;;;;11.18;61.31;100973.00;5051632;28;20276;-72
2022/02/24 09:36:19;;;;;;;6.83;3.20;;;;;;;10.08;63.52;100977.47;5051654;28;20208;-72
2022/02/24 09:38:45;;;;;;;10.50;3.37;;;;;;;9.62;65.94;100974.59;5033929;28;20181;-72
2022/02/24 09:41:11;;;;;;;10.43;3.70;;;;;;;9.93;64.40;100967.72;5037857;28;20216;-72
2022/02/24 09:43:37;;;;;;;8.40;3.30;;;;;;;9.98;64.45;100955.03;5062697;28;20212;-72
2022/02/24 09:46:06;;;;;;;13.23;3.90;;;;;;;9.94;63.67;100951.56;5059946;28;20210;-72
2022/02/24 09:48:33;;;;;;;9.77;3.30;;;;;;;10.14;62.83;100945.22;5051439;28;20239;-73
2022/02/24 09:51:00;;;;;;;9.37;3.57;;;;;;;10.16;62.72;100940.16;5033584;28;20738;-72
2022/02/24 09:53:32;;;;;;;8.33;3.50;;;;;;;10.12;62.83;100931.53;5033545;28;20186;-72
2022/02/24 09:56:03;;;;;;;12.77;3.60;;;;;;;9.97;63.16;100931.16;5051168;28;20197;-72
2022/02/24 09:58:28;;;;;;;9.57;3.60;;;;;;;10.39;62.22;100923.59;5051412;28;20648;-73
2022/02/24 10:00:59;;;;;;;10.30;3.70;;;;;;;11.62;59.71;100914.00;5050988;28;20279;-73
2022/02/24 10:03:32;;;;;;;12.07;4.27;;;;;;;10.58;59.52;100915.47;5051189;28;20174;-72
2022/02/24 10:06:02;;;;;;;10.30;3.60;;;;;;;12.24;55.32;100896.97;5056003;28;20288;-73
2022/02/24 10:08:33;;;;;;;8.67;3.40;;;;;;;10.72;59.83;100904.66;5069829;28;20181;-72
2022/02/24 10:11:01;;;;;;;11.27;3.97;;;;;;;11.16;59.46;100895.25;5039455;28;20239;-72
2022/02/24 10:13:27;;;;;;;9.97;3.93;;;;;;;11.83;57.06;100891.28;5050807;28;20216;-72
2022/02/24 10:16:01;;;;;;;9.13;3.43;;;;;;;12.25;55.35;100883.28;5050844;28;20178;-72
2022/02/24 10:18:33;;;;;;;9.00;3.80;;;;;;;12.53;54.43;100881.09;5050910;28;20707;-73
2022/02/24 10:21:05;;;;;;;9.07;3.70;;;;;;;12.24;55.32;100877.31;5050716;28;20206;-72
2022/02/24 10:23:35;;;;;;;9.03;3.37;;;;;;;10.95;58.49;100869.22;5059039;28;20185;-72
2022/02/24 10:26:04;;;;;;;13.03;3.80;;;;;;;11.57;57.23;100860.91;5050216;28;20459;-72
2022/02/24 10:28:38;;;;;;;11.33;4.13;;;;;;;12.08;56.03;100856.56;5050759;28;20217;-72
2022/02/24 10:31:24;;;;;;;8.67;3.43;;;;;;;11.40;57.90;100842.69;5032521;28;20283;-72
2022/02/24 10:33:52;;;;;;;10.10;4.23;;;;;;;11.12;60.07;100842.22;5032621;28;20812;-70
2022/02/24 10:36:22;;;;;;;13.17;3.83;;;;;;;13.19;53.63;100810.69;5050478;28;20181;-70
2022/02/24 10:39:17;;;;;;;10.57;3.87;;;;;;;12.59;55.78;100804.09;5050563;28;20189;-70
2022/02/24 10:41:47;;;;;;;10.03;3.63;;;;;;;11.82;56.46;100796.31;5058486;28;20225;-71
2022/02/24 10:44:24;;;;;;;10.87;3.53;;;;;;;12.38;56.30;100790.16;5066201;28;20192;-72
2022/02/24 10:47:04;;;;;;;10.33;3.27;;;;;;;11.98;55.87;100781.13;5070299;28;20265;-71
2022/02/24 10:49:35;;;;;;;9.80;3.70;;;;;;;11.56;56.54;100779.69;5070428;28;20192;-72
2022/02/24 10:52:20;;;;;;;12.83;3.47;;;;;;;11.48;57.94;100759.03;5070327;28;20205;-70
2022/02/24 10:55:03;;;;;;;11.87;3.93;;;;;;;11.35;58.46;100764.84;5052437;28;20199;-71
2022/02/24 10:57:29;;;;;;;8.80;3.77;;;;;;;11.32;58.75;100762.25;5070782;28;20686;-71
2022/02/24 10:59:56;;;;;;;10.37;3.40;;;;;;;11.06;58.40;100765.25;5070248;28;20272;-71
2022/02/24 11:02:23;;;;;;;8.97;3.27;;;;;;;11.01;57.40;100757.47;5070076;28;20228;-71
2022/02/24 11:04:49;;;;;;;7.07;3.57;;;;;;;10.98;58.85;100754.00;5069968;28;20205;-71
2022/02/24 11:07:16;;;;;;;9.70;3.30;;;;;;;10.83;59.53;100746.06;5025211;28;20281;-71
2022/02/24 11:09:42;;;;;;;9.40;3.10;;;;;;;11.41;58.20;100741.00;5010429;28;20686;-72
2022/02/24 11:12:10;;;;;;;9.27;4.20;;;;;;;12.86;53.83;100727.28;5017725;28;20232;-71
2022/02/24 11:14:36;;;;;;;8.90;4.10;;;;;;;13.25;52.63;100719.03;5016576;28;20424;-71
2022/02/24 11:17:05;;;;;;;12.67;3.50;;;;;;;11.80;56.34;100726.19;5055249;28;20610;-72
2022/02/24 11:19:35;;;;;;;8.50;3.83;;;;;;;12.47;54.88;100719.22;5004787;28;20260;-71
2022/02/24 11:22:01;;;;;;;9.80;3.90;;;;;;;11.24;57.28;100734.78;4969890;28;20721;-72
2022/02/24 11:24:27;;;;;;;10.03;3.47;;;;;;;11.27;58.26;100714.28;5027725;28;20709;-71